createdAt,value
2019-01-10T00:00:57.862Z,1011.35
2019-01-10T00:01:57.850Z,1011.33
2019-01-10T00:02:57.833Z,1011.38
2019-01-10T00:03:57.824Z,1011.40
2019-01-10T00:04:57.820Z,1011.45
2019-01-10T00:05:57.800Z,1011.45
2019-01-10T00:06:57.794Z,1011.45
2019-01-10T00:07:57.778Z,1011.43
2019-01-10T00:08:57.770Z,1011.55
2019-01-10T00:09:57.779Z,1011.52
2019-01-10T00:10:57.746Z,1011.53
2019-01-10T00:11:57.743Z,1011.51
2019-01-10T00:12:57.726Z,1011.54
2019-01-10T00:13:57.714Z,1011.57
2019-01-10T00:14:57.714Z,1011.55
2019-01-10T00:15:57.700Z,1011.53
2019-01-10T00:16:57.682Z,1011.54
2019-01-10T00:17:57.671Z,1011.62
2019-01-10T00:18:57.659Z,1011.59
2019-01-10T00:19:57.666Z,1011.60
2019-01-10T00:20:57.648Z,1011.61
2019-01-10T00:21:57.627Z,1011.59
2019-01-10T00:22:57.616Z,1011.60
2019-01-10T00:23:57.609Z,1011.61
2019-01-10T00:24:57.606Z,1011.62
2019-01-10T00:25:57.589Z,1011.68
2019-01-10T00:26:57.584Z,1011.64
2019-01-10T00:27:57.564Z,1011.66
2019-01-10T00:28:57.553Z,1011.68
2019-01-10T00:29:57.549Z,1011.70
2019-01-10T00:30:57.535Z,1011.69
2019-01-10T00:31:57.521Z,1011.69
2019-01-10T00:32:57.510Z,1011.74
2019-01-10T00:33:57.498Z,1011.77
2019-01-10T00:34:57.499Z,1011.68
2019-01-10T00:35:57.476Z,1011.77
2019-01-10T00:36:57.467Z,1011.76
2019-01-10T00:37:57.468Z,1011.75
2019-01-10T00:38:57.447Z,1011.79
2019-01-10T00:39:57.442Z,1011.77
2019-01-10T00:40:57.423Z,1011.76
2019-01-10T00:41:57.414Z,1011.77
2019-01-10T00:42:57.401Z,1011.77
2019-01-10T00:43:57.401Z,1011.81
2019-01-10T00:44:57.396Z,1011.77
2019-01-10T00:45:57.368Z,1011.83
2019-01-10T00:46:57.358Z,1011.78
2019-01-10T00:47:57.349Z,1011.85
2019-01-10T00:48:57.341Z,1011.83
2019-01-10T00:49:57.362Z,1011.82
2019-01-10T00:50:57.317Z,1011.80
2019-01-10T00:51:57.308Z,1011.85
2019-01-10T00:52:57.293Z,1011.85
2019-01-10T00:53:57.284Z,1011.88
2019-01-10T00:54:57.275Z,1011.94
2019-01-10T00:55:57.273Z,1011.93
2019-01-10T00:56:57.252Z,1011.95
2019-01-10T00:57:57.249Z,1011.96
2019-01-10T00:58:57.231Z,1011.95
2019-01-10T00:59:57.220Z,1011.96
2019-01-10T01:00:57.217Z,1011.95
2019-01-10T01:01:57.198Z,1011.95
2019-01-10T01:02:57.189Z,1012.05
2019-01-10T01:03:57.174Z,1011.98
2019-01-10T01:04:57.166Z,1012.05
2019-01-10T01:05:57.166Z,1012.05
2019-01-10T01:06:57.145Z,1012.01
2019-01-10T01:07:57.151Z,1012.11
2019-01-10T01:08:57.121Z,1012.09
2019-01-10T01:09:57.112Z,1012.13
2019-01-10T01:10:57.110Z,1012.14
2019-01-10T01:11:57.092Z,1012.12
2019-01-10T01:12:58.640Z,1012.17
2019-01-10T01:13:57.071Z,1012.16
2019-01-10T01:14:57.056Z,1012.21
2019-01-10T01:15:57.060Z,1012.22
2019-01-10T01:16:57.036Z,1012.22
2019-01-10T01:17:57.027Z,1012.26
2019-01-10T01:18:57.016Z,1012.31
2019-01-10T01:19:57.003Z,1012.27
2019-01-10T01:20:56.999Z,1012.31
2019-01-10T01:21:56.982Z,1012.29
2019-01-10T01:22:56.971Z,1012.38
2019-01-10T01:23:56.962Z,1012.29
2019-01-10T01:24:56.947Z,1012.31
2019-01-10T01:25:56.951Z,1012.37
2019-01-10T01:26:56.931Z,1012.35
2019-01-10T01:27:56.916Z,1012.33
2019-01-10T01:28:56.912Z,1012.39
2019-01-10T01:29:56.898Z,1012.34
2019-01-10T01:30:56.897Z,1012.39
2019-01-10T01:31:56.872Z,1012.44
2019-01-10T01:32:56.862Z,1012.43
2019-01-10T01:33:56.852Z,1012.36
2019-01-10T01:34:56.840Z,1012.42
2019-01-10T01:35:56.840Z,1012.43
2019-01-10T01:36:56.822Z,1012.51
2019-01-10T01:37:56.812Z,1012.51
2019-01-10T01:38:56.797Z,1012.48
2019-01-10T01:39:56.788Z,1012.46
2019-01-10T01:40:56.785Z,1012.51
2019-01-10T01:41:56.770Z,1012.61
2019-01-10T01:42:56.758Z,1012.59
2019-01-10T01:43:56.748Z,1012.55
2019-01-10T01:44:56.733Z,1012.59
2019-01-10T01:45:56.737Z,1012.65
2019-01-10T01:46:56.713Z,1012.65
2019-01-10T01:47:56.703Z,1012.73
2019-01-10T01:48:56.700Z,1012.75
2019-01-10T01:49:56.678Z,1012.69
2019-01-10T01:50:56.678Z,1012.74
2019-01-10T01:51:56.658Z,1012.77
2019-01-10T01:52:56.650Z,1012.77
2019-01-10T01:53:56.642Z,1012.75
2019-01-10T01:54:56.626Z,1012.80
2019-01-10T01:55:56.627Z,1012.91
2019-01-10T01:56:56.604Z,1012.89
2019-01-10T01:57:56.596Z,1012.84
2019-01-10T01:58:56.587Z,1012.92
2019-01-10T01:59:56.573Z,1012.94
2019-01-10T02:00:56.574Z,1012.93
2019-01-10T02:01:56.550Z,1012.97
2019-01-10T02:02:56.541Z,1013.04
2019-01-10T02:03:56.537Z,1013.02
2019-01-10T02:04:56.523Z,1013.02
2019-01-10T02:05:56.511Z,1013.07
2019-01-10T02:06:56.509Z,1013.07
2019-01-10T02:07:56.485Z,1013.06
2019-01-10T02:08:57.845Z,1013.11
2019-01-10T02:09:56.466Z,1013.12
2019-01-10T02:10:56.454Z,1013.10
2019-01-10T02:11:56.450Z,1013.17
2019-01-10T02:12:56.433Z,1013.16
2019-01-10T02:13:56.420Z,1013.16
2019-01-10T02:14:56.410Z,1013.12
2019-01-10T02:15:56.404Z,1013.17
2019-01-10T02:16:56.396Z,1013.14
2019-01-10T02:17:56.381Z,1013.16
2019-01-10T02:18:56.366Z,1013.18
2019-01-10T02:19:56.357Z,1013.17
2019-01-10T02:20:56.344Z,1013.16
2019-01-10T02:21:56.348Z,1013.13
2019-01-10T02:22:56.327Z,1013.15
2019-01-10T02:23:56.314Z,1013.14
2019-01-10T02:24:56.305Z,1013.20
2019-01-10T02:25:56.291Z,1013.17
2019-01-10T02:26:56.294Z,1013.24
2019-01-10T02:27:56.278Z,1013.24
2019-01-10T02:28:56.264Z,1013.27
2019-01-10T02:29:56.251Z,1013.30
2019-01-10T02:30:56.239Z,1013.25
2019-01-10T02:31:56.236Z,1013.25
2019-01-10T02:32:56.224Z,1013.24
2019-01-10T02:33:56.208Z,1013.28
2019-01-10T02:34:56.195Z,1013.28
2019-01-10T02:35:56.182Z,1013.28
2019-01-10T02:36:56.181Z,1013.28
2019-01-10T02:37:56.166Z,1013.32
2019-01-10T02:38:56.151Z,1013.35
2019-01-10T02:39:56.144Z,1013.34
2019-01-10T02:40:56.129Z,1013.40
2019-01-10T02:41:56.135Z,1013.35
2019-01-10T02:42:56.108Z,1013.41
2019-01-10T02:43:56.097Z,1013.44
2019-01-10T02:44:56.087Z,1013.38
2019-01-10T02:45:56.081Z,1013.42
2019-01-10T02:46:56.111Z,1013.47
2019-01-10T02:47:56.056Z,1013.50
2019-01-10T02:48:56.045Z,1013.49
2019-01-10T02:49:56.032Z,1013.45
2019-01-10T02:50:56.023Z,1013.55
2019-01-10T02:51:56.020Z,1013.50
2019-01-10T02:52:56.008Z,1013.49
2019-01-10T02:53:55.992Z,1013.48
2019-01-10T02:54:55.978Z,1013.47
2019-01-10T02:55:55.969Z,1013.48
2019-01-10T02:56:55.967Z,1013.47
2019-01-10T02:57:55.957Z,1013.49
2019-01-10T02:58:55.938Z,1013.51
2019-01-10T02:59:55.925Z,1013.53
2019-01-10T03:00:55.914Z,1013.46
2019-01-10T03:01:55.916Z,1013.54
2019-01-10T03:02:55.897Z,1013.49
2019-01-10T03:03:55.883Z,1013.49
2019-01-10T03:04:55.872Z,1013.46
2019-01-10T03:05:55.865Z,1013.45
2019-01-10T03:06:55.861Z,1013.49
2019-01-10T03:07:55.840Z,1013.51
2019-01-10T03:08:55.840Z,1013.51
2019-01-10T03:09:55.937Z,1013.55
2019-01-10T03:10:55.805Z,1013.52
2019-01-10T03:11:55.809Z,1013.61
2019-01-10T03:12:55.784Z,1013.53
2019-01-10T03:13:55.775Z,1013.49
2019-01-10T03:14:55.770Z,1013.56
2019-01-10T03:15:55.759Z,1013.52
2019-01-10T03:16:55.805Z,1013.56
2019-01-10T03:17:55.731Z,1013.57
2019-01-10T03:18:55.721Z,1013.55
2019-01-10T03:19:55.711Z,1013.58
2019-01-10T03:20:55.701Z,1013.62
2019-01-10T03:21:55.696Z,1013.61
2019-01-10T03:22:55.686Z,1013.63
2019-01-10T03:23:55.667Z,1013.59
2019-01-10T03:24:55.656Z,1013.59
2019-01-10T03:25:55.651Z,1013.59
2019-01-10T03:26:55.639Z,1013.64
2019-01-10T03:27:55.646Z,1013.56
2019-01-10T03:28:55.612Z,1013.64
2019-01-10T03:29:55.602Z,1013.65
2019-01-10T03:30:55.595Z,1013.61
2019-01-10T03:31:55.593Z,1013.64
2019-01-10T03:32:55.586Z,1013.63
2019-01-10T03:33:55.560Z,1013.64
2019-01-10T03:34:55.547Z,1013.63
2019-01-10T03:35:55.536Z,1013.64
2019-01-10T03:36:55.528Z,1013.68
2019-01-10T03:37:55.526Z,1013.69
2019-01-10T03:38:55.506Z,1013.69
2019-01-10T03:39:55.493Z,1013.72
2019-01-10T03:40:55.483Z,1013.69
2019-01-10T03:41:55.472Z,1013.71
2019-01-10T03:42:55.471Z,1013.73
2019-01-10T03:43:55.460Z,1013.69
2019-01-10T03:44:55.441Z,1013.68
2019-01-10T03:45:55.429Z,1013.68
2019-01-10T03:46:55.420Z,1013.70
2019-01-10T03:47:55.433Z,1013.70
2019-01-10T03:48:55.396Z,1013.69
2019-01-10T03:49:55.389Z,1013.76
2019-01-10T03:50:55.381Z,1013.71
2019-01-10T03:51:55.369Z,1013.73
2019-01-10T03:52:55.363Z,1013.74
2019-01-10T03:53:55.342Z,1013.80
2019-01-10T03:54:55.334Z,1013.79
2019-01-10T03:55:55.328Z,1013.81
2019-01-10T03:56:55.315Z,1013.83
2019-01-10T03:57:55.308Z,1013.79
2019-01-10T03:58:55.288Z,1013.80
2019-01-10T03:59:55.283Z,1013.78
2019-01-10T04:00:55.270Z,1013.75
2019-01-10T04:01:55.259Z,1013.74
2019-01-10T04:02:55.267Z,1013.68
2019-01-10T04:03:55.237Z,1013.81
2019-01-10T04:04:55.224Z,1013.74
2019-01-10T04:05:55.217Z,1013.78
2019-01-10T04:06:55.205Z,1013.76
2019-01-10T04:07:55.205Z,1013.78
2019-01-10T04:08:55.181Z,1013.75
2019-01-10T04:09:55.176Z,1013.72
2019-01-10T04:10:55.161Z,1013.78
2019-01-10T04:11:55.152Z,1013.80
2019-01-10T04:12:55.148Z,1013.74
2019-01-10T04:13:57.576Z,1013.80
2019-01-10T04:14:55.118Z,1013.76
2019-01-10T04:15:55.110Z,1013.77
2019-01-10T04:16:55.096Z,1013.83
2019-01-10T04:17:55.097Z,1013.81
2019-01-10T04:18:55.082Z,1013.79
2019-01-10T04:19:55.156Z,1013.89
2019-01-10T04:20:55.052Z,1013.95
2019-01-10T04:21:55.041Z,1013.91
2019-01-10T04:22:55.041Z,1013.94
2019-01-10T04:23:55.026Z,1013.94
2019-01-10T04:24:55.019Z,1014.01
2019-01-10T04:25:55.000Z,1013.95
2019-01-10T04:26:54.989Z,1013.95
2019-01-10T04:27:54.986Z,1013.95
2019-01-10T04:28:54.967Z,1013.95
2019-01-10T04:29:54.956Z,1013.98
2019-01-10T04:30:54.949Z,1014.03
2019-01-10T04:31:54.938Z,1014.01
2019-01-10T04:32:54.934Z,1014.05
2019-01-10T04:33:54.911Z,1014.06
2019-01-10T04:34:54.908Z,1014.04
2019-01-10T04:35:54.893Z,1014.10
2019-01-10T04:36:54.880Z,1014.08
2019-01-10T04:37:54.908Z,1014.10
2019-01-10T04:38:54.857Z,1014.08
2019-01-10T04:39:54.847Z,1014.09
2019-01-10T04:40:54.839Z,1014.13
2019-01-10T04:41:54.830Z,1014.12
2019-01-10T04:42:54.817Z,1014.11
2019-01-10T04:43:54.816Z,1014.13
2019-01-10T04:44:54.795Z,1014.12
2019-01-10T04:45:54.783Z,1014.13
2019-01-10T04:46:54.778Z,1014.08
2019-01-10T04:47:54.766Z,1014.12
2019-01-10T04:48:54.766Z,1014.13
2019-01-10T04:49:54.740Z,1014.12
2019-01-10T04:50:54.737Z,1014.14
2019-01-10T04:51:54.859Z,1014.15
2019-01-10T04:52:54.709Z,1014.10
2019-01-10T04:53:54.708Z,1014.18
2019-01-10T04:54:55.961Z,1014.19
2019-01-10T04:55:54.679Z,1014.15
2019-01-10T04:56:54.666Z,1014.17
2019-01-10T04:57:54.659Z,1014.15
2019-01-10T04:58:54.654Z,1014.21
2019-01-10T04:59:54.642Z,1014.17
2019-01-10T05:00:54.630Z,1014.18
2019-01-10T05:01:54.612Z,1014.23
2019-01-10T05:02:54.638Z,1014.25
2019-01-10T05:03:54.604Z,1014.27
2019-01-10T05:04:54.583Z,1014.25
2019-01-10T05:05:54.568Z,1014.26
2019-01-10T05:06:54.561Z,1014.25
2019-01-10T05:07:54.546Z,1014.26
2019-01-10T05:08:54.544Z,1014.24
2019-01-10T05:09:54.533Z,1014.31
2019-01-10T05:10:54.516Z,1014.26
2019-01-10T05:11:54.504Z,1014.28
2019-01-10T05:12:54.493Z,1014.29
2019-01-10T05:13:54.489Z,1014.32
2019-01-10T05:14:54.471Z,1014.29
2019-01-10T05:15:54.462Z,1014.29
2019-01-10T05:16:54.451Z,1014.34
2019-01-10T05:17:54.439Z,1014.34
2019-01-10T05:18:54.444Z,1014.34
2019-01-10T05:19:54.417Z,1014.43
2019-01-10T05:20:54.408Z,1014.40
2019-01-10T05:21:54.400Z,1014.43
2019-01-10T05:22:54.394Z,1014.36
2019-01-10T05:23:54.386Z,1014.46
2019-01-10T05:24:54.363Z,1014.48
2019-01-10T05:25:54.353Z,1014.52
2019-01-10T05:26:54.346Z,1014.54
2019-01-10T05:27:54.333Z,1014.59
2019-01-10T05:28:54.330Z,1014.60
2019-01-10T05:29:54.311Z,1014.62
2019-01-10T05:30:54.300Z,1014.66
2019-01-10T05:31:54.288Z,1014.61
2019-01-10T05:32:54.350Z,1014.61
2019-01-10T05:33:54.277Z,1014.63
2019-01-10T05:34:54.275Z,1014.65
2019-01-10T05:35:54.249Z,1014.65
2019-01-10T05:36:54.235Z,1014.67
2019-01-10T05:37:54.226Z,1014.67
2019-01-10T05:38:54.226Z,1014.63
2019-01-10T05:39:54.208Z,1014.68
2019-01-10T05:40:54.200Z,1014.68
2019-01-10T05:41:54.187Z,1014.67
2019-01-10T05:42:54.176Z,1014.75
2019-01-10T05:43:54.169Z,1014.71
2019-01-10T05:44:54.160Z,1014.73
2019-01-10T05:45:54.140Z,1014.70
2019-01-10T05:46:54.132Z,1014.71
2019-01-10T05:47:54.118Z,1014.76
2019-01-10T05:48:54.119Z,1014.81
2019-01-10T05:49:54.096Z,1014.78
2019-01-10T05:50:54.088Z,1014.77
2019-01-10T05:51:54.078Z,1014.84
2019-01-10T05:52:54.064Z,1014.83
2019-01-10T05:53:54.064Z,1014.77
2019-01-10T05:54:54.045Z,1014.88
2019-01-10T05:55:54.032Z,1014.81
2019-01-10T05:56:54.023Z,1014.83
2019-01-10T05:57:54.020Z,1014.88
2019-01-10T05:58:54.031Z,1014.94
2019-01-10T05:59:53.990Z,1014.98
2019-01-10T06:00:53.979Z,1014.93
2019-01-10T06:01:53.968Z,1014.98
2019-01-10T06:02:53.959Z,1014.96
2019-01-10T06:03:53.955Z,1014.95
2019-01-10T06:04:53.947Z,1015.00
2019-01-10T06:05:53.930Z,1014.95
2019-01-10T06:06:53.913Z,1015.00
2019-01-10T06:07:53.909Z,1014.99
2019-01-10T06:08:53.897Z,1014.99
2019-01-10T06:09:53.895Z,1015.06
2019-01-10T06:10:53.875Z,1015.09
2019-01-10T06:11:53.914Z,1015.02
2019-01-10T06:12:53.854Z,1015.10
2019-01-10T06:13:53.848Z,1015.10
2019-01-10T06:14:53.841Z,1015.12
2019-01-10T06:15:53.817Z,1015.13
2019-01-10T06:16:53.812Z,1015.16
2019-01-10T06:17:53.798Z,1015.12
2019-01-10T06:18:53.787Z,1015.18
2019-01-10T06:19:53.788Z,1015.21
2019-01-10T06:20:53.774Z,1015.23
2019-01-10T06:21:53.754Z,1015.23
2019-01-10T06:22:53.745Z,1015.24
2019-01-10T06:23:53.731Z,1015.28
2019-01-10T06:24:53.730Z,1015.31
2019-01-10T06:25:53.717Z,1015.34
2019-01-10T06:26:53.702Z,1015.32
2019-01-10T06:27:53.691Z,1015.29
2019-01-10T06:28:53.679Z,1015.30
2019-01-10T06:29:53.676Z,1015.32
2019-01-10T06:30:53.660Z,1015.33
2019-01-10T06:31:53.648Z,1015.34
2019-01-10T06:32:53.638Z,1015.35
2019-01-10T06:33:53.625Z,1015.38
2019-01-10T06:34:53.626Z,1015.38
2019-01-10T06:35:53.605Z,1015.40
2019-01-10T06:36:53.597Z,1015.42
2019-01-10T06:37:53.582Z,1015.45
2019-01-10T06:38:53.574Z,1015.45
2019-01-10T06:39:53.571Z,1015.47
2019-01-10T06:40:53.549Z,1015.46
2019-01-10T06:41:53.541Z,1015.48
2019-01-10T06:42:53.529Z,1015.51
2019-01-10T06:43:53.518Z,1015.50
2019-01-10T06:44:53.516Z,1015.51
2019-01-10T06:45:53.502Z,1015.51
2019-01-10T06:46:53.490Z,1015.49
2019-01-10T06:47:53.477Z,1015.57
2019-01-10T06:48:53.466Z,1015.59
2019-01-10T06:49:53.469Z,1015.58
2019-01-10T06:50:53.445Z,1015.64
2019-01-10T06:51:53.435Z,1015.54
2019-01-10T06:52:53.423Z,1015.55
2019-01-10T06:53:53.416Z,1015.57
2019-01-10T06:54:56.644Z,1015.57
2019-01-10T06:55:53.392Z,1015.61
2019-01-10T06:56:53.379Z,1015.62
2019-01-10T06:57:53.372Z,1015.64
2019-01-10T06:58:53.358Z,1015.64
2019-01-10T06:59:55.112Z,1015.65
2019-01-10T07:00:53.339Z,1015.65
2019-01-10T07:01:53.327Z,1015.65
2019-01-10T07:02:53.316Z,1015.66
2019-01-10T07:03:53.312Z,1015.68
2019-01-10T07:04:53.327Z,1015.69
2019-01-10T07:05:53.284Z,1015.69
2019-01-10T07:06:53.274Z,1015.65
2019-01-10T07:07:56.632Z,1015.66
2019-01-10T07:08:53.254Z,1015.69
2019-01-10T07:09:53.241Z,1015.70
2019-01-10T07:10:53.246Z,1015.71
2019-01-10T07:11:53.225Z,1015.74
2019-01-10T07:12:53.212Z,1015.71
2019-01-10T07:13:53.207Z,1015.75
2019-01-10T07:14:53.636Z,1015.70
2019-01-10T07:15:53.192Z,1015.85
2019-01-10T07:16:53.704Z,1015.78
2019-01-10T07:17:53.161Z,1015.80
2019-01-10T07:18:53.145Z,1015.81
2019-01-10T07:19:53.139Z,1015.84
2019-01-10T07:20:53.134Z,1015.83
2019-01-10T07:21:53.114Z,1015.85
2019-01-10T07:22:53.102Z,1015.83
2019-01-10T07:23:53.091Z,1015.91
2019-01-10T07:24:53.087Z,1015.96
2019-01-10T07:25:53.084Z,1015.93
2019-01-10T07:26:53.060Z,1015.97
2019-01-10T07:27:53.050Z,1015.96
2019-01-10T07:28:53.038Z,1016.00
2019-01-10T07:29:53.034Z,1015.98
2019-01-10T07:30:53.025Z,1015.98
2019-01-10T07:31:53.008Z,1016.02
2019-01-10T07:32:53.002Z,1016.04
2019-01-10T07:33:52.987Z,1016.00
2019-01-10T07:34:52.980Z,1016.02
2019-01-10T07:35:52.973Z,1016.05
2019-01-10T07:36:52.953Z,1016.07
2019-01-10T07:37:52.943Z,1016.12
2019-01-10T07:38:52.934Z,1016.11
2019-01-10T07:39:52.921Z,1016.17
2019-01-10T07:40:52.927Z,1016.16
2019-01-10T07:41:52.900Z,1016.10
2019-01-10T07:42:52.891Z,1016.11
2019-01-10T07:43:52.881Z,1016.11
2019-01-10T07:44:52.871Z,1016.10
2019-01-10T07:45:52.867Z,1016.09
2019-01-10T07:46:52.849Z,1016.08
2019-01-10T07:47:52.839Z,1016.14
2019-01-10T07:48:52.832Z,1016.14
2019-01-10T07:49:52.814Z,1016.12
2019-01-10T07:50:52.818Z,1016.20
2019-01-10T07:51:52.796Z,1016.17
2019-01-10T07:52:52.783Z,1016.18
2019-01-10T07:53:52.773Z,1016.12
2019-01-10T07:54:52.765Z,1016.17
2019-01-10T07:55:52.760Z,1016.14
2019-01-10T07:56:52.741Z,1016.13
2019-01-10T07:57:52.731Z,1016.12
2019-01-10T07:58:52.720Z,1016.23
2019-01-10T07:59:52.709Z,1016.26
2019-01-10T08:00:53.954Z,1016.24
2019-01-10T08:01:52.688Z,1016.25
2019-01-10T08:02:52.677Z,1016.26
2019-01-10T08:03:52.667Z,1016.19
2019-01-10T08:04:52.657Z,1016.26
2019-01-10T08:05:52.648Z,1016.26
2019-01-10T08:06:52.649Z,1016.29
2019-01-10T08:07:52.629Z,1016.33
2019-01-10T08:08:52.614Z,1016.35
2019-01-10T08:09:52.603Z,1016.37
2019-01-10T08:10:52.616Z,1016.39
2019-01-10T08:12:00.375Z,1016.39
2019-01-10T08:12:53.570Z,1016.36
2019-01-10T08:13:52.562Z,1016.40
2019-01-10T08:14:52.549Z,1016.40
2019-01-10T08:15:52.539Z,1016.48
2019-01-10T08:16:52.538Z,1016.49
2019-01-10T08:17:52.516Z,1016.45
2019-01-10T08:18:52.506Z,1016.54
2019-01-10T08:19:52.498Z,1016.47
2019-01-10T08:20:52.484Z,1016.58
2019-01-10T08:21:52.484Z,1016.56
2019-01-10T08:22:52.462Z,1016.56
2019-01-10T08:23:52.456Z,1016.54
2019-01-10T08:24:52.446Z,1016.61
2019-01-10T08:25:52.431Z,1016.61
2019-01-10T08:26:52.432Z,1016.61
2019-01-10T08:27:52.410Z,1016.60
2019-01-10T08:28:52.402Z,1016.65
2019-01-10T08:29:52.395Z,1016.68
2019-01-10T08:30:52.377Z,1016.65
2019-01-10T08:31:52.377Z,1016.66
2019-01-10T08:32:52.360Z,1016.66
2019-01-10T08:33:52.347Z,1016.69
2019-01-10T08:34:52.335Z,1016.71
2019-01-10T08:35:52.328Z,1016.74
2019-01-10T08:36:52.325Z,1016.76
2019-01-10T08:37:52.305Z,1016.76
2019-01-10T08:38:52.293Z,1016.77
2019-01-10T08:39:52.281Z,1016.82
2019-01-10T08:40:52.276Z,1016.75
2019-01-10T08:41:52.271Z,1016.78
2019-01-10T08:42:52.250Z,1016.79
2019-01-10T08:43:52.238Z,1016.74
2019-01-10T08:44:52.245Z,1016.80
2019-01-10T08:45:52.221Z,1016.80
2019-01-10T08:46:52.214Z,1016.82
2019-01-10T08:47:52.194Z,1016.80
2019-01-10T08:48:52.191Z,1016.76
2019-01-10T08:49:52.175Z,1016.81
2019-01-10T08:50:52.162Z,1016.78
2019-01-10T08:51:52.161Z,1016.81
2019-01-10T08:52:52.143Z,1016.75
2019-01-10T08:53:54.015Z,1016.81
2019-01-10T08:54:52.123Z,1016.86
2019-01-10T08:55:52.112Z,1016.82
2019-01-10T08:56:52.111Z,1016.80
2019-01-10T08:57:52.089Z,1016.82
2019-01-10T08:58:52.081Z,1016.76
2019-01-10T08:59:52.070Z,1016.75
2019-01-10T09:00:52.056Z,1016.76
2019-01-10T09:01:52.056Z,1016.79
2019-01-10T09:02:52.034Z,1016.81
2019-01-10T09:03:52.024Z,1016.81
2019-01-10T09:04:52.015Z,1016.83
2019-01-10T09:05:52.003Z,1016.82
2019-01-10T09:06:52.001Z,1016.83
2019-01-10T09:07:51.981Z,1016.86
2019-01-10T09:08:51.971Z,1016.90
2019-01-10T09:09:51.963Z,1016.87
2019-01-10T09:10:51.948Z,1016.91
2019-01-10T09:11:51.947Z,1016.98
2019-01-10T09:12:51.925Z,1016.91
2019-01-10T09:13:51.914Z,1016.99
2019-01-10T09:14:51.911Z,1016.99
2019-01-10T09:15:51.894Z,1016.92
2019-01-10T09:16:51.893Z,1017.01
2019-01-10T09:17:51.873Z,1016.99
2019-01-10T09:18:51.861Z,1016.98
2019-01-10T09:19:51.856Z,1016.99
2019-01-10T09:20:51.841Z,1017.02
2019-01-10T09:21:51.836Z,1017.05
2019-01-10T09:22:51.835Z,1017.10
2019-01-10T09:23:51.810Z,1017.11
2019-01-10T09:24:51.798Z,1017.08
2019-01-10T09:25:51.786Z,1017.06
2019-01-10T09:26:51.780Z,1017.12
2019-01-10T09:27:51.778Z,1017.13
2019-01-10T09:28:51.757Z,1017.13
2019-01-10T09:29:51.742Z,1017.16
2019-01-10T09:30:51.732Z,1017.16
2019-01-10T09:31:51.722Z,1017.20
2019-01-10T09:32:51.726Z,1017.26
2019-01-10T09:33:51.705Z,1017.16
2019-01-10T09:34:51.690Z,1017.20
2019-01-10T09:35:51.683Z,1017.23
2019-01-10T09:36:51.703Z,1017.21
2019-01-10T09:37:51.670Z,1017.26
2019-01-10T09:38:51.650Z,1017.33
2019-01-10T09:39:51.644Z,1017.25
2019-01-10T09:40:51.630Z,1017.27
2019-01-10T09:41:51.614Z,1017.30
2019-01-10T09:42:51.615Z,1017.25
2019-01-10T09:43:51.596Z,1017.36
2019-01-10T09:44:51.582Z,1017.32
2019-01-10T09:45:51.571Z,1017.39
2019-01-10T09:46:51.561Z,1017.33
2019-01-10T09:47:51.563Z,1017.42
2019-01-10T09:48:51.539Z,1017.37
2019-01-10T09:49:51.528Z,1017.41
2019-01-10T09:50:51.525Z,1017.42
2019-01-10T09:51:51.507Z,1017.40
2019-01-10T09:52:51.506Z,1017.41
2019-01-10T09:53:51.487Z,1017.43
2019-01-10T09:54:51.475Z,1017.46
2019-01-10T09:55:51.463Z,1017.46
2019-01-10T09:56:51.455Z,1017.45
2019-01-10T09:57:51.453Z,1017.48
2019-01-10T09:58:51.436Z,1017.45
2019-01-10T09:59:51.423Z,1017.46
2019-01-10T10:00:51.410Z,1017.45
2019-01-10T10:01:51.398Z,1017.47
2019-01-10T10:02:51.403Z,1017.49
2019-01-10T10:03:51.380Z,1017.45
2019-01-10T10:04:51.366Z,1017.47
2019-01-10T10:05:51.358Z,1017.47
2019-01-10T10:06:51.346Z,1017.48
2019-01-10T10:07:51.350Z,1017.45
2019-01-10T10:08:51.328Z,1017.44
2019-01-10T10:09:51.314Z,1017.48
2019-01-10T10:10:51.303Z,1017.43
2019-01-10T10:11:51.293Z,1017.45
2019-01-10T10:12:51.296Z,1017.41
2019-01-10T10:13:51.275Z,1017.44
2019-01-10T10:14:51.260Z,1017.47
2019-01-10T10:15:52.771Z,1017.47
2019-01-10T10:16:51.240Z,1017.43
2019-01-10T10:17:51.238Z,1017.43
2019-01-10T10:18:51.235Z,1017.42
2019-01-10T10:19:51.205Z,1017.48
2019-01-10T10:20:51.199Z,1017.45
2019-01-10T10:21:51.187Z,1017.50
2019-01-10T10:22:51.185Z,1017.49
2019-01-10T10:23:51.163Z,1017.46
2019-01-10T10:24:51.154Z,1017.47
2019-01-10T10:25:51.140Z,1017.49
2019-01-10T10:26:51.131Z,1017.59
2019-01-10T10:27:51.127Z,1017.52
2019-01-10T10:28:51.110Z,1017.53
2019-01-10T10:29:51.101Z,1017.51
2019-01-10T10:30:51.091Z,1017.46
2019-01-10T10:31:51.077Z,1017.51
2019-01-10T10:32:51.075Z,1017.49
2019-01-10T10:33:51.056Z,1017.48
2019-01-10T10:34:51.045Z,1017.50
2019-01-10T10:35:51.035Z,1017.46
2019-01-10T10:36:51.024Z,1017.45
2019-01-10T10:37:51.047Z,1017.48
2019-01-10T10:38:51.005Z,1017.47
2019-01-10T10:39:50.993Z,1017.50
2019-01-10T10:40:50.981Z,1017.47
2019-01-10T10:41:50.972Z,1017.41
2019-01-10T10:42:51.840Z,1017.43
2019-01-10T10:43:50.958Z,1017.41
2019-01-10T10:44:50.939Z,1017.44
2019-01-10T10:45:50.931Z,1017.44
2019-01-10T10:46:50.917Z,1017.43
2019-01-10T10:47:50.907Z,1017.42
2019-01-10T10:48:50.906Z,1017.45
2019-01-10T10:49:50.886Z,1017.37
2019-01-10T10:50:50.875Z,1017.43
2019-01-10T10:51:50.864Z,1017.40
2019-01-10T10:52:50.924Z,1017.41
2019-01-10T10:53:50.853Z,1017.40
2019-01-10T10:54:50.833Z,1017.41
2019-01-10T10:55:50.823Z,1017.43
2019-01-10T10:56:50.812Z,1017.37
2019-01-10T10:57:50.800Z,1017.34
2019-01-10T10:58:50.799Z,1017.34
2019-01-10T10:59:50.780Z,1017.31
2019-01-10T11:00:50.769Z,1017.32
2019-01-10T11:01:50.760Z,1017.30
2019-01-10T11:02:50.749Z,1017.34
2019-01-10T11:03:50.857Z,1017.32
2019-01-10T11:04:50.725Z,1017.31
2019-01-10T11:05:50.714Z,1017.40
2019-01-10T11:06:50.717Z,1017.31
2019-01-10T11:07:50.694Z,1017.31
2019-01-10T11:08:50.693Z,1017.34
2019-01-10T11:09:50.674Z,1017.29
2019-01-10T11:10:50.664Z,1017.31
2019-01-10T11:11:50.660Z,1017.29
2019-01-10T11:12:50.652Z,1017.35
2019-01-10T11:13:50.640Z,1017.32
2019-01-10T11:14:50.626Z,1017.44
2019-01-10T11:15:50.611Z,1017.34
2019-01-10T11:16:50.597Z,1017.44
2019-01-10T11:17:50.587Z,1017.48
2019-01-10T11:18:50.587Z,1017.47
2019-01-10T11:19:51.234Z,1017.45
2019-01-10T11:20:50.555Z,1017.44
2019-01-10T11:21:50.545Z,1017.40
2019-01-10T11:22:50.535Z,1017.48
2019-01-10T11:23:50.536Z,1017.37
2019-01-10T11:24:50.519Z,1017.39
2019-01-10T11:25:50.503Z,1017.35
2019-01-10T11:26:50.493Z,1017.39
2019-01-10T11:27:50.480Z,1017.35
2019-01-10T11:28:50.483Z,1017.35
2019-01-10T11:29:50.464Z,1017.41
2019-01-10T11:30:50.467Z,1017.36
2019-01-10T11:31:50.441Z,1017.39
2019-01-10T11:32:50.428Z,1017.42
2019-01-10T11:33:50.428Z,1017.33
2019-01-10T11:34:50.411Z,1017.34
2019-01-10T11:35:50.402Z,1017.36
2019-01-10T11:36:50.388Z,1017.33
2019-01-10T11:37:50.375Z,1017.37
2019-01-10T11:38:50.376Z,1017.36
2019-01-10T11:39:50.356Z,1017.36
2019-01-10T11:40:50.347Z,1017.37
2019-01-10T11:41:50.333Z,1017.34
2019-01-10T11:42:50.322Z,1017.39
2019-01-10T11:43:50.319Z,1017.36
2019-01-10T11:44:50.303Z,1017.35
2019-01-10T11:45:50.291Z,1017.30
2019-01-10T11:46:50.279Z,1017.26
2019-01-10T11:47:50.272Z,1017.36
2019-01-10T11:48:50.274Z,1017.27
2019-01-10T11:49:50.254Z,1017.33
2019-01-10T11:50:50.241Z,1017.31
2019-01-10T11:51:50.230Z,1017.27
2019-01-10T11:52:50.217Z,1017.25
2019-01-10T11:53:50.213Z,1017.24
2019-01-10T11:54:50.209Z,1017.24
2019-01-10T11:55:50.194Z,1017.18
2019-01-10T11:56:50.174Z,1017.21
2019-01-10T11:57:50.164Z,1017.24
2019-01-10T11:58:50.179Z,1017.23
2019-01-10T11:59:50.158Z,1017.23
2019-01-10T12:00:50.134Z,1017.19
2019-01-10T12:01:50.122Z,1017.26
2019-01-10T12:02:50.117Z,1017.25
2019-01-10T12:03:50.099Z,1017.28
2019-01-10T12:04:50.098Z,1017.19
2019-01-10T12:05:52.960Z,1017.14